sensor_id;sensor_type;location;lat;lon;timestamp;pressure;altitude;pressure_sealevel;temperature;humidity
68656;BME280;55638;51.122;13.606;2023-05-23T00:01:27;99669.50;;;16.13;44.21
68656;BME280;55638;51.122;13.606;2023-05-23T00:03:02;99674.06;;;16.12;44.42
68656;BME280;55638;51.122;13.606;2023-05-23T00:04:34;99674.94;;;16.13;44.64
68656;BME280;55638;51.122;13.606;2023-05-23T00:06:07;99670.34;;;16.13;45.39
68656;BME280;55638;51.122;13.606;2023-05-23T00:07:40;99673.22;;;16.12;45.72
68656;BME280;55638;51.122;13.606;2023-05-23T00:09:13;99675.94;;;16.12;45.45
68656;BME280;55638;51.122;13.606;2023-05-23T00:10:45;99673.56;;;16.09;45.94
68656;BME280;55638;51.122;13.606;2023-05-23T00:12:17;99670.84;;;16.09;46.14
68656;BME280;55638;51.122;13.606;2023-05-23T00:13:50;99662.22;;;16.05;46.44
68656;BME280;55638;51.122;13.606;2023-05-23T00:15:22;99668.84;;;16.02;46.52
68656;BME280;55638;51.122;13.606;2023-05-23T00:16:54;99659.19;;;16.00;46.72
68656;BME280;55638;51.122;13.606;2023-05-23T00:18:26;99667.69;;;15.97;46.67
68656;BME280;55638;51.122;13.606;2023-05-23T00:19:58;99670.91;;;15.92;47.28
68656;BME280;55638;51.122;13.606;2023-05-23T00:21:29;99670.63;;;15.87;47.81
68656;BME280;55638;51.122;13.606;2023-05-23T00:23:01;99673.69;;;15.84;47.74
68656;BME280;55638;51.122;13.606;2023-05-23T00:24:34;99670.47;;;15.81;48.08
68656;BME280;55638;51.122;13.606;2023-05-23T00:26:06;99676.41;;;15.76;48.28
68656;BME280;55638;51.122;13.606;2023-05-23T00:27:37;99675.06;;;15.72;48.58
68656;BME280;55638;51.122;13.606;2023-05-23T00:29:09;99672.72;;;15.69;48.77
68656;BME280;55638;51.122;13.606;2023-05-23T00:30:46;99673.06;;;15.66;48.94
68656;BME280;55638;51.122;13.606;2023-05-23T00:32:19;99668.81;;;15.63;49.22
68656;BME280;55638;51.122;13.606;2023-05-23T00:33:51;99676.47;;;15.60;49.29
68656;BME280;55638;51.122;13.606;2023-05-23T00:35:24;99679.38;;;15.58;49.54
68656;BME280;55638;51.122;13.606;2023-05-23T00:36:55;99689.72;;;15.54;49.97
68656;BME280;55638;51.122;13.606;2023-05-23T00:38:28;99706.38;;;15.51;50.32
68656;BME280;55638;51.122;13.606;2023-05-23T00:40:00;99719.22;;;15.49;50.48
68656;BME280;55638;51.122;13.606;2023-05-23T00:41:33;99718.56;;;15.47;51.01
68656;BME280;55638;51.122;13.606;2023-05-23T00:43:05;99716.03;;;15.46;50.59
68656;BME280;55638;51.122;13.606;2023-05-23T00:44:38;99725.34;;;15.43;51.22
68656;BME280;55638;51.122;13.606;2023-05-23T00:46:10;99727.41;;;15.41;51.42
68656;BME280;55638;51.122;13.606;2023-05-23T00:47:43;99725.69;;;15.40;51.38
68656;BME280;55638;51.122;13.606;2023-05-23T00:49:15;99732.34;;;15.38;51.65
68656;BME280;55638;51.122;13.606;2023-05-23T00:50:51;99733.19;;;15.38;51.80
68656;BME280;55638;51.122;13.606;2023-05-23T00:52:23;99727.91;;;15.37;51.72
68656;BME280;55638;51.122;13.606;2023-05-23T00:53:56;99727.06;;;15.36;51.97
68656;BME280;55638;51.122;13.606;2023-05-23T00:55:32;99717.88;;;15.37;51.72
68656;BME280;55638;51.122;13.606;2023-05-23T00:57:04;99720.78;;;15.36;51.82
68656;BME280;55638;51.122;13.606;2023-05-23T00:58:36;99709.06;;;15.35;52.17
68656;BME280;55638;51.122;13.606;2023-05-23T01:00:10;99696.50;;;15.34;52.44
68656;BME280;55638;51.122;13.606;2023-05-23T01:01:43;99697.53;;;15.33;52.35
68656;BME280;55638;51.122;13.606;2023-05-23T01:03:18;99693.97;;;15.33;52.49
68656;BME280;55638;51.122;13.606;2023-05-23T01:04:50;99692.28;;;15.31;52.60
68656;BME280;55638;51.122;13.606;2023-05-23T01:06:25;99687.00;;;15.30;52.85
68656;BME280;55638;51.122;13.606;2023-05-23T01:07:57;99688.88;;;15.29;52.63
68656;BME280;55638;51.122;13.606;2023-05-23T01:09:29;99690.06;;;15.27;52.92
68656;BME280;55638;51.122;13.606;2023-05-23T01:11:06;99685.31;;;15.29;53.81
68656;BME280;55638;51.122;13.606;2023-05-23T01:14:46;99672.44;;;15.23;54.57
68656;BME280;55638;51.122;13.606;2023-05-23T01:16:38;99673.78;;;15.27;52.91
68656;BME280;55638;51.122;13.606;2023-05-23T01:18:21;99659.53;;;15.25;53.15
68656;BME280;55638;51.122;13.606;2023-05-23T01:19:59;99650.69;;;15.23;53.53
68656;BME280;55638;51.122;13.606;2023-05-23T01:21:33;99652.38;;;15.24;53.46
68656;BME280;55638;51.122;13.606;2023-05-23T01:23:22;99654.78;;;15.19;54.21
68656;BME280;55638;51.122;13.606;2023-05-23T01:25:10;99662.59;;;15.14;54.37
68656;BME280;55638;51.122;13.606;2023-05-23T01:27:09;99684.63;;;15.11;55.50
68656;BME280;55638;51.122;13.606;2023-05-23T01:28:55;99689.22;;;15.10;55.27
68656;BME280;55638;51.122;13.606;2023-05-23T01:30:31;99694.84;;;15.08;55.03
68656;BME280;55638;51.122;13.606;2023-05-23T01:32:09;99704.31;;;15.04;56.57
68656;BME280;55638;51.122;13.606;2023-05-23T01:33:42;99709.94;;;15.03;55.87
68656;BME280;55638;51.122;13.606;2023-05-23T01:35:21;99706.53;;;15.01;57.14
68656;BME280;55638;51.122;13.606;2023-05-23T01:36:55;99706.53;;;15.01;55.77
68656;BME280;55638;51.122;13.606;2023-05-23T01:38:27;99701.28;;;14.99;55.73
68656;BME280;55638;51.122;13.606;2023-05-23T01:39:59;99696.00;;;14.98;56.30
68656;BME280;55638;51.122;13.606;2023-05-23T01:41:30;99688.03;;;14.96;56.44
68656;BME280;55638;51.122;13.606;2023-05-23T01:43:03;99697.19;;;14.95;56.67
68656;BME280;55638;51.122;13.606;2023-05-23T01:44:35;99699.06;;;14.95;56.15
68656;BME280;55638;51.122;13.606;2023-05-23T01:46:08;99704.66;;;14.93;56.65
68656;BME280;55638;51.122;13.606;2023-05-23T01:47:41;99715.53;;;14.93;56.68
68656;BME280;55638;51.122;13.606;2023-05-23T01:49:14;99707.38;;;14.93;56.68
68656;BME280;55638;51.122;13.606;2023-05-23T01:50:47;99700.25;;;14.92;56.53
68656;BME280;55638;51.122;13.606;2023-05-23T01:52:20;99697.69;;;14.91;56.64
68656;BME280;55638;51.122;13.606;2023-05-23T01:53:52;99694.97;;;14.91;56.50
68656;BME280;55638;51.122;13.606;2023-05-23T01:55:25;99691.44;;;14.90;56.25
68656;BME280;55638;51.122;13.606;2023-05-23T01:56:58;99682.25;;;14.91;56.29
68656;BME280;55638;51.122;13.606;2023-05-23T01:58:31;99670.91;;;14.88;56.42
68656;BME280;55638;51.122;13.606;2023-05-23T02:00:06;99667.69;;;14.84;57.29
68656;BME280;55638;51.122;13.606;2023-05-23T02:01:45;99650.56;;;14.83;56.40
68656;BME280;55638;51.122;13.606;2023-05-23T02:03:17;99648.34;;;14.79;56.75
68656;BME280;55638;51.122;13.606;2023-05-23T02:04:49;99644.13;;;14.76;56.80
68656;BME280;55638;51.122;13.606;2023-05-23T02:06:22;99638.84;;;14.75;56.95
68656;BME280;55638;51.122;13.606;2023-05-23T02:07:53;99638.19;;;14.73;56.78
68656;BME280;55638;51.122;13.606;2023-05-23T02:09:25;99635.81;;;14.70;57.27
68656;BME280;55638;51.122;13.606;2023-05-23T02:10:57;99638.84;;;14.67;57.51
68656;BME280;55638;51.122;13.606;2023-05-23T02:12:29;99655.47;;;14.64;57.81
68656;BME280;55638;51.122;13.606;2023-05-23T02:14:02;99653.91;;;14.61;57.81
68656;BME280;55638;51.122;13.606;2023-05-23T02:15:34;99658.47;;;14.60;57.81
68656;BME280;55638;51.122;13.606;2023-05-23T02:17:06;99657.78;;;14.58;58.10
68656;BME280;55638;51.122;13.606;2023-05-23T02:18:38;99666.09;;;14.57;58.45
68656;BME280;55638;51.122;13.606;2023-05-23T02:20:10;99657.13;;;14.56;58.23
68656;BME280;55638;51.122;13.606;2023-05-23T02:21:42;99658.13;;;14.55;58.49
68656;BME280;55638;51.122;13.606;2023-05-23T02:23:14;99660.16;;;14.53;58.61
68656;BME280;55638;51.122;13.606;2023-05-23T02:24:46;99655.06;;;14.50;58.96
68656;BME280;55638;51.122;13.606;2023-05-23T02:26:18;99652.34;;;14.50;59.24
68656;BME280;55638;51.122;13.606;2023-05-23T02:27:49;99650.50;;;14.51;59.35
68656;BME280;55638;51.122;13.606;2023-05-23T02:29:21;99648.63;;;14.51;59.24
68656;BME280;55638;51.122;13.606;2023-05-23T02:30:54;99647.94;;;14.49;59.60
68656;BME280;55638;51.122;13.606;2023-05-23T02:32:26;99653.19;;;14.51;59.73
68656;BME280;55638;51.122;13.606;2023-05-23T02:33:59;99644.22;;;14.50;59.56
68656;BME280;55638;51.122;13.606;2023-05-23T02:35:31;99643.03;;;14.53;59.84
68656;BME280;55638;51.122;13.606;2023-05-23T02:37:04;99641.34;;;14.52;59.80
68656;BME280;55638;51.122;13.606;2023-05-23T02:38:36;99634.88;;;14.53;59.80
68656;BME280;55638;51.122;13.606;2023-05-23T02:40:08;99637.59;;;14.53;59.90
68656;BME280;55638;51.122;13.606;2023-05-23T02:41:40;99632.16;;;14.53;59.81
68656;BME280;55638;51.122;13.606;2023-05-23T02:43:12;99635.56;;;14.55;59.92
68656;BME280;55638;51.122;13.606;2023-05-23T02:44:44;99629.31;;;14.54;60.58
68656;BME280;55638;51.122;13.606;2023-05-23T02:46:15;99627.44;;;14.55;60.53
68656;BME280;55638;51.122;13.606;2023-05-23T02:47:47;99616.59;;;14.55;60.58
68656;BME280;55638;51.122;13.606;2023-05-23T02:49:19;99618.47;;;14.54;60.84
68656;BME280;55638;51.122;13.606;2023-05-23T02:50:51;99612.00;;;14.55;60.96
68656;BME280;55638;51.122;13.606;2023-05-23T02:52:24;99610.00;;;14.57;60.96
68656;BME280;55638;51.122;13.606;2023-05-23T02:53:56;99610.84;;;14.58;60.77
68656;BME280;55638;51.122;13.606;2023-05-23T02:55:28;99606.25;;;14.58;61.22
68656;BME280;55638;51.122;13.606;2023-05-23T02:57:02;99605.22;;;14.59;61.00
68656;BME280;55638;51.122;13.606;2023-05-23T02:58:38;99601.22;;;14.64;60.67
68656;BME280;55638;51.122;13.606;2023-05-23T03:00:11;99593.91;;;14.64;60.75
68656;BME280;55638;51.122;13.606;2023-05-23T03:01:45;99593.72;;;14.66;60.76
68656;BME280;55638;51.122;13.606;2023-05-23T03:03:17;99600.88;;;14.67;60.83
68656;BME280;55638;51.122;13.606;2023-05-23T03:04:49;99594.59;;;14.66;61.07
68656;BME280;55638;51.122;13.606;2023-05-23T03:06:21;99597.13;;;14.68;60.84
68656;BME280;55638;51.122;13.606;2023-05-23T03:07:53;99601.53;;;14.69;61.14
68656;BME280;55638;51.122;13.606;2023-05-23T03:09:25;99603.25;;;14.70;61.04
68656;BME280;55638;51.122;13.606;2023-05-23T03:10:57;99595.13;;;14.70;60.73
68656;BME280;55638;51.122;13.606;2023-05-23T03:12:29;99596.81;;;14.71;61.02
68656;BME280;55638;51.122;13.606;2023-05-23T03:14:01;99603.91;;;14.72;61.01
68656;BME280;55638;51.122;13.606;2023-05-23T03:15:33;99603.91;;;14.72;60.75
68656;BME280;55638;51.122;13.606;2023-05-23T03:17:05;99604.59;;;14.74;60.84
68656;BME280;55638;51.122;13.606;2023-05-23T03:18:38;99594.78;;;14.73;60.69
68656;BME280;55638;51.122;13.606;2023-05-23T03:20:12;99597.31;;;14.74;60.77
68656;BME280;55638;51.122;13.606;2023-05-23T03:21:45;99593.75;;;14.74;60.73
68656;BME280;55638;51.122;13.606;2023-05-23T03:23:17;99599.31;;;14.72;60.72
68656;BME280;55638;51.122;13.606;2023-05-23T03:24:49;99600.19;;;14.73;60.95
68656;BME280;55638;51.122;13.606;2023-05-23T03:26:21;99600.19;;;14.73;60.70
68656;BME280;55638;51.122;13.606;2023-05-23T03:27:54;99602.91;;;14.73;60.87
68656;BME280;55638;51.122;13.606;2023-05-23T03:29:26;99598.47;;;14.72;61.05
68656;BME280;55638;51.122;13.606;2023-05-23T03:30:58;99602.91;;;14.73;61.02
68656;BME280;55638;51.122;13.606;2023-05-23T03:32:30;99594.78;;;14.73;60.95
68656;BME280;55638;51.122;13.606;2023-05-23T03:34:03;99601.03;;;14.73;60.80
68656;BME280;55638;51.122;13.606;2023-05-23T03:35:36;99597.50;;;14.73;60.97
68656;BME280;55638;51.122;13.606;2023-05-23T03:37:08;99607.31;;;14.74;61.03
68656;BME280;55638;51.122;13.606;2023-05-23T03:38:40;99609.00;;;14.75;61.31
68656;BME280;55638;51.122;13.606;2023-05-23T03:40:12;99602.72;;;14.74;61.23
68656;BME280;55638;51.122;13.606;2023-05-23T03:41:44;99600.88;;;14.75;60.91
68656;BME280;55638;51.122;13.606;2023-05-23T03:43:16;99615.25;;;14.75;61.47
68656;BME280;55638;51.122;13.606;2023-05-23T03:44:49;99625.28;;;14.75;61.29
68656;BME280;55638;51.122;13.606;2023-05-23T03:46:21;99621.53;;;14.76;61.46
68656;BME280;55638;51.122;13.606;2023-05-23T03:47:53;99624.25;;;14.76;61.54
68656;BME280;55638;51.122;13.606;2023-05-23T03:49:25;99626.13;;;14.75;61.47
68656;BME280;55638;51.122;13.606;2023-05-23T03:50:57;99615.97;;;14.77;61.30
68656;BME280;55638;51.122;13.606;2023-05-23T03:52:29;99615.97;;;14.77;61.36
68656;BME280;55638;51.122;13.606;2023-05-23T03:54:02;99615.97;;;14.77;61.28
68656;BME280;55638;51.122;13.606;2023-05-23T03:55:34;99620.34;;;14.78;61.35
68656;BME280;55638;51.122;13.606;2023-05-23T03:57:06;99630.38;;;14.78;61.43
68656;BME280;55638;51.122;13.606;2023-05-23T03:58:40;99635.78;;;14.78;61.72
68656;BME280;55638;51.122;13.606;2023-05-23T04:00:16;99647.34;;;14.80;61.85
68656;BME280;55638;51.122;13.606;2023-05-23T04:01:52;99639.19;;;14.80;62.00
68656;BME280;55638;51.122;13.606;2023-05-23T04:03:24;99638.16;;;14.81;62.00
68656;BME280;55638;51.122;13.606;2023-05-23T04:04:58;99639.84;;;14.82;62.04
68656;BME280;55638;51.122;13.606;2023-05-23T04:06:31;99636.81;;;14.85;61.84
68656;BME280;55638;51.122;13.606;2023-05-23T04:08:04;99635.81;;;14.86;62.00
68656;BME280;55638;51.122;13.606;2023-05-23T04:09:36;99633.94;;;14.87;62.28
68656;BME280;55638;51.122;13.606;2023-05-23T04:11:11;99631.03;;;14.88;62.11
68656;BME280;55638;51.122;13.606;2023-05-23T04:12:44;99634.44;;;14.90;61.98
68656;BME280;55638;51.122;13.606;2023-05-23T04:14:20;99631.53;;;14.92;62.10
68656;BME280;55638;51.122;13.606;2023-05-23T04:15:53;99642.91;;;14.95;62.15
68656;BME280;55638;51.122;13.606;2023-05-23T04:17:29;99648.19;;;14.97;62.23
68656;BME280;55638;51.122;13.606;2023-05-23T04:19:02;99656.13;;;14.98;62.47
68656;BME280;55638;51.122;13.606;2023-05-23T04:20:36;99653.09;;;15.01;62.50
68656;BME280;55638;51.122;13.606;2023-05-23T04:22:09;99648.34;;;15.03;62.49
68656;BME280;55638;51.122;13.606;2023-05-23T04:23:41;99654.47;;;15.05;62.37
68656;BME280;55638;51.122;13.606;2023-05-23T04:25:13;99662.25;;;15.08;62.37
68656;BME280;55638;51.122;13.606;2023-05-23T04:26:51;99650.03;;;15.13;62.49
68656;BME280;55638;51.122;13.606;2023-05-23T04:28:25;99657.16;;;15.14;62.66
68656;BME280;55638;51.122;13.606;2023-05-23T04:29:58;99653.06;;;15.18;62.50
68656;BME280;55638;51.122;13.606;2023-05-23T04:31:31;99651.72;;;15.22;62.53
68656;BME280;55638;51.122;13.606;2023-05-23T04:33:05;99654.94;;;15.25;62.42
68656;BME280;55638;51.122;13.606;2023-05-23T04:34:37;99654.59;;;15.28;62.51
68656;BME280;55638;51.122;13.606;2023-05-23T04:36:13;99655.09;;;15.32;62.36
68656;BME280;55638;51.122;13.606;2023-05-23T04:37:49;99653.94;;;15.35;62.55
68656;BME280;55638;51.122;13.606;2023-05-23T04:39:21;99653.59;;;15.38;62.27
68656;BME280;55638;51.122;13.606;2023-05-23T04:41:12;99655.06;;;15.40;62.01
68656;BME280;55638;51.122;13.606;2023-05-23T04:42:46;99660.84;;;15.45;62.35
68656;BME280;55638;51.122;13.606;2023-05-23T04:44:29;99657.78;;;15.48;62.05
68656;BME280;55638;51.122;13.606;2023-05-23T04:46:14;99656.75;;;15.49;61.79
68656;BME280;55638;51.122;13.606;2023-05-23T04:47:51;99662.72;;;15.53;61.90
68656;BME280;55638;51.122;13.606;2023-05-23T04:49:44;99655.41;;;15.53;61.90
68656;BME280;55638;51.122;13.606;2023-05-23T04:51:17;99657.78;;;15.57;61.89
68656;BME280;55638;51.122;13.606;2023-05-23T04:52:57;99653.03;;;15.59;61.88
68656;BME280;55638;51.122;13.606;2023-05-23T04:54:29;99654.72;;;15.60;61.95
68656;BME280;55638;51.122;13.606;2023-05-23T04:56:04;99658.97;;;15.62;61.59
68656;BME280;55638;51.122;13.606;2023-05-23T04:57:36;99657.94;;;15.63;61.76
68656;BME280;55638;51.122;13.606;2023-05-23T04:59:10;99659.66;;;15.64;61.87
68656;BME280;55638;51.122;13.606;2023-05-23T05:00:42;99671.03;;;15.68;61.92
68656;BME280;55638;51.122;13.606;2023-05-23T05:02:14;99668.97;;;15.70;61.83
68656;BME280;55638;51.122;13.606;2023-05-23T05:03:46;99669.66;;;15.72;62.09
68656;BME280;55638;51.122;13.606;2023-05-23T05:05:18;99675.75;;;15.74;62.35
68656;BME280;55638;51.122;13.606;2023-05-23T05:06:51;99674.53;;;15.76;62.23
68656;BME280;55638;51.122;13.606;2023-05-23T05:08:24;99674.19;;;15.80;62.37
68656;BME280;55638;51.122;13.606;2023-05-23T05:09:56;99671.13;;;15.83;62.46
68656;BME280;55638;51.122;13.606;2023-05-23T05:11:31;99670.63;;;15.87;62.47
68656;BME280;55638;51.122;13.606;2023-05-23T05:13:03;99668.56;;;15.89;62.23
68656;BME280;55638;51.122;13.606;2023-05-23T05:14:44;99670.75;;;15.94;62.31
68656;BME280;55638;51.122;13.606;2023-05-23T05:16:16;99671.25;;;15.97;62.02
68656;BME280;55638;51.122;13.606;2023-05-23T05:17:48;99669.22;;;15.99;62.19
68656;BME280;55638;51.122;13.606;2023-05-23T05:19:22;99663.25;;;16.04;62.21
68656;BME280;55638;51.122;13.606;2023-05-23T05:20:55;99665.59;;;16.07;62.13
68656;BME280;55638;51.122;13.606;2023-05-23T05:22:28;99666.09;;;16.11;62.49
68656;BME280;55638;51.122;13.606;2023-05-23T05:23:59;99663.50;;;16.17;62.48
68656;BME280;55638;51.122;13.606;2023-05-23T05:25:32;99660.63;;;16.19;62.08
68656;BME280;55638;51.122;13.606;2023-05-23T05:27:06;99663.66;;;16.24;62.41
68656;BME280;55638;51.122;13.606;2023-05-23T05:28:40;99662.09;;;16.30;62.54
68656;BME280;55638;51.122;13.606;2023-05-23T05:30:12;99662.44;;;16.35;62.48
68656;BME280;55638;51.122;13.606;2023-05-23T05:31:56;99660.03;;;16.40;62.57
68656;BME280;55638;51.122;13.606;2023-05-23T05:33:28;99664.91;;;16.44;62.43
68656;BME280;55638;51.122;13.606;2023-05-23T05:35:09;99667.78;;;16.51;62.31
68656;BME280;55638;51.122;13.606;2023-05-23T05:36:46;99666.41;;;16.55;62.26
68656;BME280;55638;51.122;13.606;2023-05-23T05:38:21;99667.53;;;16.61;62.21
68656;BME280;55638;51.122;13.606;2023-05-23T05:39:53;99664.94;;;16.67;62.04
68656;BME280;55638;51.122;13.606;2023-05-23T05:41:26;99668.16;;;16.71;62.00
68656;BME280;55638;51.122;13.606;2023-05-23T05:42:58;99666.56;;;16.77;62.23
68656;BME280;55638;51.122;13.606;2023-05-23T05:44:30;99676.75;;;16.83;62.52
68656;BME280;55638;51.122;13.606;2023-05-23T05:46:02;99671.63;;;16.88;62.51
68656;BME280;55638;51.122;13.606;2023-05-23T05:47:34;99664.41;;;16.95;62.51
68656;BME280;55638;51.122;13.606;2023-05-23T05:49:07;99664.72;;;17.00;62.20
68656;BME280;55638;51.122;13.606;2023-05-23T05:50:42;99666.31;;;17.09;62.42
68656;BME280;55638;51.122;13.606;2023-05-23T05:52:16;99674.63;;;17.16;62.32
68656;BME280;55638;51.122;13.606;2023-05-23T05:53:48;99676.25;;;17.25;62.71
68656;BME280;55638;51.122;13.606;2023-05-23T05:56:56;99679.13;;;17.47;63.84
68656;BME280;55638;51.122;13.606;2023-05-23T05:58:28;99674.72;;;17.60;63.34
68656;BME280;55638;51.122;13.606;2023-05-23T06:00:13;99679.16;;;17.76;62.26
68656;BME280;55638;51.122;13.606;2023-05-23T06:01:49;99685.44;;;17.92;62.74
68656;BME280;55638;51.122;13.606;2023-05-23T06:03:24;99689.03;;;18.07;62.32
68656;BME280;55638;51.122;13.606;2023-05-23T06:04:58;99681.00;;;18.20;61.90
68656;BME280;55638;51.122;13.606;2023-05-23T06:06:30;99684.09;;;18.32;61.22
68656;BME280;55638;51.122;13.606;2023-05-23T06:08:02;99682.75;;;18.43;61.10
68656;BME280;55638;51.122;13.606;2023-05-23T06:09:35;99677.19;;;18.51;60.92
68656;BME280;55638;51.122;13.606;2023-05-23T06:11:07;99681.50;;;18.60;60.33
68656;BME280;55638;51.122;13.606;2023-05-23T06:12:39;99687.69;;;18.69;60.10
68656;BME280;55638;51.122;13.606;2023-05-23T06:14:11;99687.78;;;18.75;59.86
68656;BME280;55638;51.122;13.606;2023-05-23T06:15:47;99690.78;;;18.81;59.64
68656;BME280;55638;51.122;13.606;2023-05-23T06:17:19;99693.78;;;18.86;59.25
68656;BME280;55638;51.122;13.606;2023-05-23T06:18:51;99696.13;;;18.89;59.16
68656;BME280;55638;51.122;13.606;2023-05-23T06:20:24;99694.88;;;18.91;58.81
68656;BME280;55638;51.122;13.606;2023-05-23T06:21:57;99699.09;;;18.94;58.59
68656;BME280;55638;51.122;13.606;2023-05-23T06:23:29;99695.31;;;18.95;58.42
68656;BME280;55638;51.122;13.606;2023-05-23T06:25:02;99701.66;;;18.95;58.48
68656;BME280;55638;51.122;13.606;2023-05-23T06:26:34;99698.25;;;18.93;58.03
68656;BME280;55638;51.122;13.606;2023-05-23T06:28:08;99698.66;;;18.90;57.70
68656;BME280;55638;51.122;13.606;2023-05-23T06:29:40;99712.69;;;18.87;57.45
68656;BME280;55638;51.122;13.606;2023-05-23T06:31:12;99712.03;;;18.85;57.82
68656;BME280;55638;51.122;13.606;2023-05-23T06:32:44;99709.69;;;18.82;57.70
68656;BME280;55638;51.122;13.606;2023-05-23T06:34:16;99709.22;;;18.78;57.20
68656;BME280;55638;51.122;13.606;2023-05-23T06:35:50;99708.97;;;18.73;57.38
68656;BME280;55638;51.122;13.606;2023-05-23T06:37:21;99702.22;;;18.69;57.43
68656;BME280;55638;51.122;13.606;2023-05-23T06:38:53;99707.38;;;18.64;57.45
68656;BME280;55638;51.122;13.606;2023-05-23T06:40:26;99709.66;;;18.61;57.61
68656;BME280;55638;51.122;13.606;2023-05-23T06:41:58;99701.84;;;18.58;58.03
68656;BME280;55638;51.122;13.606;2023-05-23T06:43:36;99706.47;;;18.57;58.59
68656;BME280;55638;51.122;13.606;2023-05-23T06:45:17;99705.41;;;18.58;59.28
68656;BME280;55638;51.122;13.606;2023-05-23T06:46:49;99709.44;;;18.62;60.08
68656;BME280;55638;51.122;13.606;2023-05-23T06:48:21;99708.53;;;18.70;60.98
68656;BME280;55638;51.122;13.606;2023-05-23T06:49:54;99709.50;;;18.84;61.79
68656;BME280;55638;51.122;13.606;2023-05-23T06:51:26;99709.25;;;19.00;61.78
68656;BME280;55638;51.122;13.606;2023-05-23T06:52:58;99708.59;;;19.19;61.34
68656;BME280;55638;51.122;13.606;2023-05-23T06:54:30;99707.91;;;19.39;60.47
68656;BME280;55638;51.122;13.606;2023-05-23T06:56:02;99712.06;;;19.56;59.80
68656;BME280;55638;51.122;13.606;2023-05-23T06:57:36;99716.84;;;19.76;59.90
68656;BME280;55638;51.122;13.606;2023-05-23T06:59:08;99711.72;;;19.94;59.37
68656;BME280;55638;51.122;13.606;2023-05-23T07:00:40;99713.06;;;20.11;59.03
68656;BME280;55638;51.122;13.606;2023-05-23T07:02:19;99718.66;;;20.31;58.57
68656;BME280;55638;51.122;13.606;2023-05-23T07:03:51;99716.84;;;20.45;57.30
68656;BME280;55638;51.122;13.606;2023-05-23T07:05:23;99704.03;;;20.59;56.84
68656;BME280;55638;51.122;13.606;2023-05-23T07:06:55;99708.72;;;20.72;56.35
68656;BME280;55638;51.122;13.606;2023-05-23T07:08:27;99713.00;;;20.81;56.19
68656;BME280;55638;51.122;13.606;2023-05-23T07:10:04;99706.47;;;20.88;55.68
68656;BME280;55638;51.122;13.606;2023-05-23T07:11:36;99709.88;;;20.97;55.83
68656;BME280;55638;51.122;13.606;2023-05-23T07:13:10;99707.97;;;21.04;55.92
68656;BME280;55638;51.122;13.606;2023-05-23T07:14:42;99702.91;;;21.15;56.23
68656;BME280;55638;51.122;13.606;2023-05-23T07:16:14;99707.16;;;21.24;55.26
68656;BME280;55638;51.122;13.606;2023-05-23T07:18:07;99712.63;;;21.37;55.54
68656;BME280;55638;51.122;13.606;2023-05-23T07:19:39;99717.94;;;21.52;55.22
68656;BME280;55638;51.122;13.606;2023-05-23T07:21:11;99712.88;;;21.69;55.13
68656;BME280;55638;51.122;13.606;2023-05-23T07:22:43;99711.78;;;21.83;54.76
68656;BME280;55638;51.122;13.606;2023-05-23T07:24:16;99718.94;;;22.04;54.55
68656;BME280;55638;51.122;13.606;2023-05-23T07:25:48;99716.16;;;22.24;54.33
68656;BME280;55638;51.122;13.606;2023-05-23T07:27:42;99720.91;;;22.48;54.41
68656;BME280;55638;51.122;13.606;2023-05-23T07:29:14;99712.78;;;22.67;53.93
68656;BME280;55638;51.122;13.606;2023-05-23T07:30:48;99706.38;;;22.86;53.93
68656;BME280;55638;51.122;13.606;2023-05-23T07:32:20;99710.44;;;23.09;53.51
68656;BME280;55638;51.122;13.606;2023-05-23T07:33:52;99710.06;;;23.30;53.56
68656;BME280;55638;51.122;13.606;2023-05-23T07:35:34;99718.34;;;23.55;53.11
68656;BME280;55638;51.122;13.606;2023-05-23T07:37:06;99717.13;;;23.76;52.32
68656;BME280;55638;51.122;13.606;2023-05-23T07:38:44;99720.91;;;24.00;51.86
68656;BME280;55638;51.122;13.606;2023-05-23T07:40:16;99720.47;;;24.22;51.44
68656;BME280;55638;51.122;13.606;2023-05-23T07:41:48;99714.34;;;24.38;50.36
68656;BME280;55638;51.122;13.606;2023-05-23T07:43:21;99713.94;;;24.53;49.76
68656;BME280;55638;51.122;13.606;2023-05-23T07:44:53;99719.75;;;24.63;49.07
68656;BME280;55638;51.122;13.606;2023-05-23T07:46:25;99713.47;;;24.74;49.80
68656;BME280;55638;51.122;13.606;2023-05-23T07:47:57;99706.06;;;24.87;49.79
68656;BME280;55638;51.122;13.606;2023-05-23T07:49:30;99716.94;;;25.00;49.33
68656;BME280;55638;51.122;13.606;2023-05-23T07:51:02;99717.78;;;25.12;48.12
68656;BME280;55638;51.122;13.606;2023-05-23T07:52:34;99716.41;;;25.21;48.16
68656;BME280;55638;51.122;13.606;2023-05-23T07:54:08;99716.06;;;25.30;47.74
68656;BME280;55638;51.122;13.606;2023-05-23T07:55:43;99720.19;;;25.39;47.38
68656;BME280;55638;51.122;13.606;2023-05-23T07:57:16;99722.56;;;25.47;47.55
68656;BME280;55638;51.122;13.606;2023-05-23T07:58:48;99719.22;;;25.57;47.77
68656;BME280;55638;51.122;13.606;2023-05-23T08:00:20;99717.19;;;25.64;46.36
68656;BME280;55638;51.122;13.606;2023-05-23T08:01:58;99717.06;;;25.70;45.71
68656;BME280;55638;51.122;13.606;2023-05-23T08:03:31;99719.97;;;25.76;45.94
68656;BME280;55638;51.122;13.606;2023-05-23T08:05:09;99722.84;;;25.81;45.92
68656;BME280;55638;51.122;13.606;2023-05-23T08:06:41;99727.66;;;25.85;45.63
68656;BME280;55638;51.122;13.606;2023-05-23T08:08:56;99734.88;;;25.98;45.68
68656;BME280;55638;51.122;13.606;2023-05-23T08:10:47;99728.75;;;26.08;45.88
68656;BME280;55638;51.122;13.606;2023-05-23T08:12:44;99733.16;;;26.20;45.71
68656;BME280;55638;51.122;13.606;2023-05-23T08:14:19;99732.94;;;26.34;45.75
68656;BME280;55638;51.122;13.606;2023-05-23T08:16:18;99726.63;;;26.50;45.76